sensor_id;sensor_type;location;lat;lon;timestamp;P1;durP1;ratioP1;P2;durP2;ratioP2
23596;SDS011;40226;50.874;4.394;2022-11-11T00:00:58;33.72;;;19.13;;
23596;SDS011;40226;50.874;4.394;2022-11-11T00:03:31;33.60;;;19.45;;
23596;SDS011;40226;50.874;4.394;2022-11-11T00:06:04;40.08;;;19.00;;
23596;SDS011;40226;50.874;4.394;2022-11-11T00:08:32;38.00;;;18.45;;
23596;SDS011;40226;50.874;4.394;2022-11-11T00:10:59;36.67;;;18.30;;
23596;SDS011;40226;50.874;4.394;2022-11-11T00:13:32;31.08;;;17.92;;
23596;SDS011;40226;50.874;4.394;2022-11-11T00:18:30;32.90;;;17.73;;
23596;SDS011;40226;50.874;4.394;2022-11-11T00:21:16;36.17;;;19.42;;
23596;SDS011;40226;50.874;4.394;2022-11-11T00:24:01;37.33;;;20.23;;
23596;SDS011;40226;50.874;4.394;2022-11-11T00:26:46;32.35;;;19.20;;
23596;SDS011;40226;50.874;4.394;2022-11-11T00:29:11;37.03;;;20.42;;
23596;SDS011;40226;50.874;4.394;2022-11-11T00:31:37;37.38;;;19.65;;
23596;SDS011;40226;50.874;4.394;2022-11-11T00:34:23;36.25;;;19.20;;
23596;SDS011;40226;50.874;4.394;2022-11-11T00:36:54;33.97;;;20.13;;
23596;SDS011;40226;50.874;4.394;2022-11-11T00:39:42;36.75;;;19.33;;
23596;SDS011;40226;50.874;4.394;2022-11-11T00:42:46;32.55;;;17.42;;
23596;SDS011;40226;50.874;4.394;2022-11-11T00:45:12;29.85;;;17.08;;
23596;SDS011;40226;50.874;4.394;2022-11-11T00:47:37;28.13;;;15.95;;
23596;SDS011;40226;50.874;4.394;2022-11-11T00:50:23;31.42;;;15.90;;
23596;SDS011;40226;50.874;4.394;2022-11-11T00:53:10;29.88;;;15.95;;
23596;SDS011;40226;50.874;4.394;2022-11-11T00:55:37;28.00;;;15.88;;
23596;SDS011;40226;50.874;4.394;2022-11-11T00:58:03;28.77;;;14.98;;
23596;SDS011;40226;50.874;4.394;2022-11-11T01:00:29;31.75;;;16.73;;
23596;SDS011;40226;50.874;4.394;2022-11-11T01:02:55;30.10;;;16.90;;
23596;SDS011;40226;50.874;4.394;2022-11-11T01:05:22;25.27;;;14.43;;
23596;SDS011;40226;50.874;4.394;2022-11-11T01:07:48;27.40;;;14.75;;
23596;SDS011;40226;50.874;4.394;2022-11-11T01:10:14;26.30;;;14.57;;
23596;SDS011;40226;50.874;4.394;2022-11-11T01:13:01;26.45;;;15.23;;
23596;SDS011;40226;50.874;4.394;2022-11-11T01:15:36;26.42;;;12.98;;
23596;SDS011;40226;50.874;4.394;2022-11-11T01:18:02;30.98;;;16.85;;
23596;SDS011;40226;50.874;4.394;2022-11-11T01:20:27;31.48;;;17.40;;
23596;SDS011;40226;50.874;4.394;2022-11-11T01:22:53;32.00;;;17.27;;
23596;SDS011;40226;50.874;4.394;2022-11-11T01:25:18;30.60;;;17.42;;
23596;SDS011;40226;50.874;4.394;2022-11-11T01:27:44;36.13;;;18.13;;
23596;SDS011;40226;50.874;4.394;2022-11-11T01:30:10;30.95;;;18.30;;
23596;SDS011;40226;50.874;4.394;2022-11-11T01:32:38;35.65;;;19.65;;
23596;SDS011;40226;50.874;4.394;2022-11-11T01:35:04;38.95;;;21.05;;
23596;SDS011;40226;50.874;4.394;2022-11-11T01:37:34;35.35;;;20.63;;
23596;SDS011;40226;50.874;4.394;2022-11-11T01:40:00;38.67;;;21.85;;
23596;SDS011;40226;50.874;4.394;2022-11-11T01:42:26;41.42;;;23.15;;
23596;SDS011;40226;50.874;4.394;2022-11-11T01:44:52;39.28;;;20.13;;
23596;SDS011;40226;50.874;4.394;2022-11-11T01:47:17;35.67;;;19.30;;
23596;SDS011;40226;50.874;4.394;2022-11-11T01:49:49;31.77;;;19.15;;
23596;SDS011;40226;50.874;4.394;2022-11-11T01:52:25;36.78;;;20.27;;
23596;SDS011;40226;50.874;4.394;2022-11-11T02:00:09;32.65;;;18.42;;
23596;SDS011;40226;50.874;4.394;2022-11-11T02:05:29;34.50;;;19.50;;
23596;SDS011;40226;50.874;4.394;2022-11-11T02:08:11;36.20;;;19.20;;
23596;SDS011;40226;50.874;4.394;2022-11-11T02:10:56;32.58;;;19.40;;
23596;SDS011;40226;50.874;4.394;2022-11-11T02:13:28;31.23;;;18.02;;
23596;SDS011;40226;50.874;4.394;2022-11-11T02:16:47;31.55;;;16.73;;
23596;SDS011;40226;50.874;4.394;2022-11-11T02:20:13;28.00;;;17.10;;
23596;SDS011;40226;50.874;4.394;2022-11-11T02:23:05;37.75;;;18.85;;
23596;SDS011;40226;50.874;4.394;2022-11-11T02:26:29;36.75;;;18.75;;
23596;SDS011;40226;50.874;4.394;2022-11-11T02:29:54;36.28;;;19.55;;
23596;SDS011;40226;50.874;4.394;2022-11-11T02:33:03;36.05;;;20.73;;
23596;SDS011;40226;50.874;4.394;2022-11-11T02:54:45;26.10;;;15.10;;
23596;SDS011;40226;50.874;4.394;2022-11-11T02:57:11;34.92;;;15.73;;
23596;SDS011;40226;50.874;4.394;2022-11-11T02:59:38;27.75;;;14.98;;
23596;SDS011;40226;50.874;4.394;2022-11-11T03:02:04;24.67;;;14.88;;
23596;SDS011;40226;50.874;4.394;2022-11-11T03:04:31;27.20;;;14.93;;
23596;SDS011;40226;50.874;4.394;2022-11-11T03:06:57;28.65;;;14.50;;
23596;SDS011;40226;50.874;4.394;2022-11-11T03:09:22;26.20;;;15.40;;
23596;SDS011;40226;50.874;4.394;2022-11-11T03:11:48;24.80;;;15.00;;
23596;SDS011;40226;50.874;4.394;2022-11-11T03:14:14;25.27;;;14.25;;
23596;SDS011;40226;50.874;4.394;2022-11-11T03:16:39;25.30;;;14.70;;
23596;SDS011;40226;50.874;4.394;2022-11-11T03:19:23;24.58;;;14.38;;
23596;SDS011;40226;50.874;4.394;2022-11-11T03:21:49;23.75;;;14.88;;
23596;SDS011;40226;50.874;4.394;2022-11-11T03:24:56;25.98;;;14.32;;
23596;SDS011;40226;50.874;4.394;2022-11-11T03:27:40;24.38;;;13.73;;
23596;SDS011;40226;50.874;4.394;2022-11-11T03:30:06;24.13;;;14.00;;
23596;SDS011;40226;50.874;4.394;2022-11-11T03:32:32;30.23;;;15.30;;
23596;SDS011;40226;50.874;4.394;2022-11-11T03:34:58;25.48;;;15.10;;
23596;SDS011;40226;50.874;4.394;2022-11-11T03:37:23;25.25;;;14.80;;
23596;SDS011;40226;50.874;4.394;2022-11-11T03:42:33;26.30;;;15.75;;
23596;SDS011;40226;50.874;4.394;2022-11-11T03:44:58;29.48;;;17.05;;
23596;SDS011;40226;50.874;4.394;2022-11-11T03:47:24;27.13;;;16.55;;
23596;SDS011;40226;50.874;4.394;2022-11-11T03:49:49;26.45;;;15.73;;
23596;SDS011;40226;50.874;4.394;2022-11-11T03:52:15;26.85;;;15.43;;
23596;SDS011;40226;50.874;4.394;2022-11-11T03:54:40;30.60;;;16.20;;
23596;SDS011;40226;50.874;4.394;2022-11-11T03:57:06;22.13;;;14.65;;
23596;SDS011;40226;50.874;4.394;2022-11-11T04:00:07;28.00;;;15.43;;
23596;SDS011;40226;50.874;4.394;2022-11-11T04:02:34;26.63;;;16.35;;
23596;SDS011;40226;50.874;4.394;2022-11-11T04:05:18;26.33;;;15.77;;
23596;SDS011;40226;50.874;4.394;2022-11-11T04:08:23;27.23;;;16.17;;
23596;SDS011;40226;50.874;4.394;2022-11-11T04:14:34;27.35;;;14.82;;
23596;SDS011;40226;50.874;4.394;2022-11-11T04:19:44;24.63;;;13.68;;
23596;SDS011;40226;50.874;4.394;2022-11-11T04:22:28;23.67;;;14.20;;
23596;SDS011;40226;50.874;4.394;2022-11-11T04:24:53;23.08;;;13.65;;
23596;SDS011;40226;50.874;4.394;2022-11-11T04:27:37;26.85;;;14.88;;
23596;SDS011;40226;50.874;4.394;2022-11-11T04:30:03;30.30;;;14.15;;
23596;SDS011;40226;50.874;4.394;2022-11-11T04:32:29;28.88;;;13.65;;
23596;SDS011;40226;50.874;4.394;2022-11-11T04:35:04;29.65;;;14.25;;
23596;SDS011;40226;50.874;4.394;2022-11-11T04:37:32;25.48;;;15.15;;
23596;SDS011;40226;50.874;4.394;2022-11-11T04:39:59;25.73;;;15.02;;
23596;SDS011;40226;50.874;4.394;2022-11-11T04:42:44;25.23;;;15.00;;
23596;SDS011;40226;50.874;4.394;2022-11-11T04:45:10;24.35;;;14.68;;
23596;SDS011;40226;50.874;4.394;2022-11-11T04:48:04;26.40;;;15.05;;
23596;SDS011;40226;50.874;4.394;2022-11-11T04:50:31;26.50;;;14.60;;
23596;SDS011;40226;50.874;4.394;2022-11-11T04:52:57;24.25;;;15.48;;
23596;SDS011;40226;50.874;4.394;2022-11-11T04:55:23;26.80;;;14.70;;
23596;SDS011;40226;50.874;4.394;2022-11-11T04:58:27;24.00;;;13.27;;
23596;SDS011;40226;50.874;4.394;2022-11-11T05:00:54;22.40;;;13.65;;
23596;SDS011;40226;50.874;4.394;2022-11-11T05:04:00;25.63;;;13.85;;
23596;SDS011;40226;50.874;4.394;2022-11-11T05:07:13;25.02;;;14.88;;
23596;SDS011;40226;50.874;4.394;2022-11-11T05:09:57;24.80;;;15.00;;
23596;SDS011;40226;50.874;4.394;2022-11-11T05:12:23;26.05;;;15.77;;
23596;SDS011;40226;50.874;4.394;2022-11-11T05:14:49;23.95;;;15.35;;
23596;SDS011;40226;50.874;4.394;2022-11-11T05:20:17;20.27;;;12.60;;
23596;SDS011;40226;50.874;4.394;2022-11-11T05:23:01;22.42;;;13.05;;
23596;SDS011;40226;50.874;4.394;2022-11-11T05:25:26;25.90;;;13.73;;
23596;SDS011;40226;50.874;4.394;2022-11-11T05:27:57;18.00;;;12.65;;
23596;SDS011;40226;50.874;4.394;2022-11-11T05:30:23;17.80;;;12.30;;
23596;SDS011;40226;50.874;4.394;2022-11-11T05:32:50;20.23;;;12.93;;
23596;SDS011;40226;50.874;4.394;2022-11-11T05:35:18;25.52;;;12.52;;
23596;SDS011;40226;50.874;4.394;2022-11-11T05:37:43;25.92;;;13.13;;
23596;SDS011;40226;50.874;4.394;2022-11-11T05:40:29;24.80;;;12.32;;
23596;SDS011;40226;50.874;4.394;2022-11-11T05:43:35;24.13;;;12.63;;
23596;SDS011;40226;50.874;4.394;2022-11-11T05:46:00;23.15;;;12.73;;
23596;SDS011;40226;50.874;4.394;2022-11-11T05:48:53;21.90;;;12.50;;
23596;SDS011;40226;50.874;4.394;2022-11-11T05:51:37;23.05;;;12.32;;
23596;SDS011;40226;50.874;4.394;2022-11-11T05:54:03;23.15;;;12.85;;
23596;SDS011;40226;50.874;4.394;2022-11-11T05:56:28;22.52;;;13.20;;
23596;SDS011;40226;50.874;4.394;2022-11-11T05:58:54;26.42;;;13.20;;
23596;SDS011;40226;50.874;4.394;2022-11-11T06:01:20;20.52;;;12.05;;
23596;SDS011;40226;50.874;4.394;2022-11-11T06:03:45;21.48;;;13.02;;
23596;SDS011;40226;50.874;4.394;2022-11-11T06:06:11;24.65;;;14.13;;
23596;SDS011;40226;50.874;4.394;2022-11-11T06:08:37;26.15;;;14.15;;
23596;SDS011;40226;50.874;4.394;2022-11-11T06:11:03;20.08;;;13.63;;
23596;SDS011;40226;50.874;4.394;2022-11-11T06:13:28;26.15;;;14.20;;
23596;SDS011;40226;50.874;4.394;2022-11-11T06:15:55;27.08;;;13.63;;
23596;SDS011;40226;50.874;4.394;2022-11-11T06:18:21;26.83;;;14.63;;
23596;SDS011;40226;50.874;4.394;2022-11-11T06:20:56;26.65;;;14.27;;
23596;SDS011;40226;50.874;4.394;2022-11-11T06:23:23;27.33;;;15.20;;
23596;SDS011;40226;50.874;4.394;2022-11-11T06:25:50;24.77;;;15.25;;
23596;SDS011;40226;50.874;4.394;2022-11-11T06:28:34;28.15;;;14.40;;
23596;SDS011;40226;50.874;4.394;2022-11-11T06:31:00;32.88;;;15.27;;
23596;SDS011;40226;50.874;4.394;2022-11-11T06:33:26;26.17;;;15.35;;
23596;SDS011;40226;50.874;4.394;2022-11-11T06:35:52;23.60;;;15.52;;
23596;SDS011;40226;50.874;4.394;2022-11-11T06:38:17;28.45;;;14.70;;
23596;SDS011;40226;50.874;4.394;2022-11-11T06:40:43;27.35;;;15.93;;
23596;SDS011;40226;50.874;4.394;2022-11-11T06:43:09;27.85;;;15.88;;
23596;SDS011;40226;50.874;4.394;2022-11-11T06:45:35;30.13;;;15.95;;
23596;SDS011;40226;50.874;4.394;2022-11-11T06:48:21;30.15;;;16.67;;
23596;SDS011;40226;50.874;4.394;2022-11-11T06:50:48;32.03;;;16.90;;
23596;SDS011;40226;50.874;4.394;2022-11-11T06:53:15;30.13;;;15.70;;
23596;SDS011;40226;50.874;4.394;2022-11-11T06:55:42;28.52;;;15.55;;
23596;SDS011;40226;50.874;4.394;2022-11-11T06:58:15;28.10;;;16.00;;
23596;SDS011;40226;50.874;4.394;2022-11-11T07:00:43;28.75;;;15.57;;
23596;SDS011;40226;50.874;4.394;2022-11-11T07:03:14;35.72;;;16.60;;
23596;SDS011;40226;50.874;4.394;2022-11-11T07:06:38;29.90;;;15.82;;
23596;SDS011;40226;50.874;4.394;2022-11-11T07:10:03;30.33;;;16.50;;
23596;SDS011;40226;50.874;4.394;2022-11-11T07:13:29;30.95;;;16.30;;
23596;SDS011;40226;50.874;4.394;2022-11-11T07:16:50;29.63;;;16.35;;
23596;SDS011;40226;50.874;4.394;2022-11-11T07:20:19;32.30;;;16.02;;
23596;SDS011;40226;50.874;4.394;2022-11-11T07:23:24;28.15;;;16.88;;
23596;SDS011;40226;50.874;4.394;2022-11-11T08:12:18;26.75;;;15.25;;
23596;SDS011;40226;50.874;4.394;2022-11-11T08:15:03;24.60;;;14.00;;
23596;SDS011;40226;50.874;4.394;2022-11-11T08:17:29;25.67;;;15.07;;
23596;SDS011;40226;50.874;4.394;2022-11-11T08:19:56;28.17;;;14.95;;
23596;SDS011;40226;50.874;4.394;2022-11-11T08:22:22;24.45;;;13.88;;
23596;SDS011;40226;50.874;4.394;2022-11-11T08:24:47;27.23;;;13.85;;
23596;SDS011;40226;50.874;4.394;2022-11-11T08:27:13;27.98;;;13.95;;
23596;SDS011;40226;50.874;4.394;2022-11-11T08:29:38;27.65;;;13.93;;
23596;SDS011;40226;50.874;4.394;2022-11-11T08:32:04;31.02;;;14.80;;
23596;SDS011;40226;50.874;4.394;2022-11-11T08:34:30;30.10;;;14.95;;
23596;SDS011;40226;50.874;4.394;2022-11-11T08:37:15;24.88;;;14.95;;
23596;SDS011;40226;50.874;4.394;2022-11-11T08:40:41;25.60;;;14.07;;
23596;SDS011;40226;50.874;4.394;2022-11-11T08:44:06;28.13;;;14.63;;
23596;SDS011;40226;50.874;4.394;2022-11-11T08:47:32;24.40;;;13.35;;
23596;SDS011;40226;50.874;4.394;2022-11-11T08:50:57;27.02;;;14.48;;
23596;SDS011;40226;50.874;4.394;2022-11-11T08:54:04;23.25;;;13.93;;
23596;SDS011;40226;50.874;4.394;2022-11-11T08:57:30;25.75;;;13.38;;
23596;SDS011;40226;50.874;4.394;2022-11-11T09:00:35;24.45;;;13.30;;
23596;SDS011;40226;50.874;4.394;2022-11-11T09:03:03;22.27;;;13.50;;
23596;SDS011;40226;50.874;4.394;2022-11-11T09:06:11;25.52;;;13.40;;
23596;SDS011;40226;50.874;4.394;2022-11-11T09:09:36;26.90;;;14.02;;
23596;SDS011;40226;50.874;4.394;2022-11-11T09:12:02;28.52;;;14.50;;
23596;SDS011;40226;50.874;4.394;2022-11-11T09:14:28;27.75;;;14.48;;
23596;SDS011;40226;50.874;4.394;2022-11-11T09:16:53;25.65;;;14.05;;
23596;SDS011;40226;50.874;4.394;2022-11-11T09:19:19;25.60;;;13.82;;
23596;SDS011;40226;50.874;4.394;2022-11-11T09:21:44;19.45;;;12.13;;
23596;SDS011;40226;50.874;4.394;2022-11-11T09:24:10;19.67;;;11.45;;
23596;SDS011;40226;50.874;4.394;2022-11-11T09:26:35;26.83;;;13.15;;
23596;SDS011;40226;50.874;4.394;2022-11-11T09:29:01;19.80;;;11.68;;
23596;SDS011;40226;50.874;4.394;2022-11-11T09:31:27;21.30;;;11.13;;
23596;SDS011;40226;50.874;4.394;2022-11-11T09:33:52;18.83;;;10.60;;
23596;SDS011;40226;50.874;4.394;2022-11-11T09:36:18;18.95;;;10.95;;
23596;SDS011;40226;50.874;4.394;2022-11-11T09:38:45;16.73;;;10.13;;
23596;SDS011;40226;50.874;4.394;2022-11-11T09:42:17;18.17;;;9.75;;
23596;SDS011;40226;50.874;4.394;2022-11-11T09:51:24;17.30;;;10.02;;
23596;SDS011;40226;50.874;4.394;2022-11-11T09:53:56;16.33;;;8.95;;
23596;SDS011;40226;50.874;4.394;2022-11-11T09:56:27;17.67;;;8.90;;
23596;SDS011;40226;50.874;4.394;2022-11-11T09:58:59;14.93;;;8.15;;
23596;SDS011;40226;50.874;4.394;2022-11-11T10:01:39;16.50;;;8.73;;
23596;SDS011;40226;50.874;4.394;2022-11-11T10:04:14;13.40;;;7.82;;
23596;SDS011;40226;50.874;4.394;2022-11-11T10:07:08;12.80;;;7.85;;
23596;SDS011;40226;50.874;4.394;2022-11-11T10:10:02;13.60;;;7.45;;
23596;SDS011;40226;50.874;4.394;2022-11-11T10:13:38;11.13;;;6.53;;
23596;SDS011;40226;50.874;4.394;2022-11-11T10:19:17;7.95;;;4.95;;
23596;SDS011;40226;50.874;4.394;2022-11-11T10:25:17;10.82;;;4.95;;
23596;SDS011;40226;50.874;4.394;2022-11-11T10:28:42;10.23;;;4.50;;
23596;SDS011;40226;50.874;4.394;2022-11-11T10:32:12;6.55;;;4.10;;
23596;SDS011;40226;50.874;4.394;2022-11-11T10:35:35;6.93;;;4.35;;
23596;SDS011;40226;50.874;4.394;2022-11-11T10:38:52;8.68;;;5.13;;
23596;SDS011;40226;50.874;4.394;2022-11-11T10:42:16;8.00;;;4.57;;
23596;SDS011;40226;50.874;4.394;2022-11-11T10:45:07;8.30;;;4.80;;
23596;SDS011;40226;50.874;4.394;2022-11-11T10:48:11;10.93;;;5.10;;
23596;SDS011;40226;50.874;4.394;2022-11-11T10:51:37;8.85;;;4.25;;
23596;SDS011;40226;50.874;4.394;2022-11-11T10:54:40;6.97;;;4.38;;
23596;SDS011;40226;50.874;4.394;2022-11-11T10:58:21;10.00;;;4.85;;
23596;SDS011;40226;50.874;4.394;2022-11-11T16:41:29;9.13;;;6.30;;
23596;SDS011;40226;50.874;4.394;2022-11-11T16:44:04;10.63;;;6.28;;
23596;SDS011;40226;50.874;4.394;2022-11-11T16:46:49;11.07;;;7.28;;
23596;SDS011;40226;50.874;4.394;2022-11-11T16:49:31;10.70;;;7.13;;
23596;SDS011;40226;50.874;4.394;2022-11-11T16:52:18;13.45;;;8.85;;
23596;SDS011;40226;50.874;4.394;2022-11-11T16:54:48;9.40;;;6.20;;
23596;SDS011;40226;50.874;4.394;2022-11-11T16:57:17;14.60;;;7.10;;
23596;SDS011;40226;50.874;4.394;2022-11-11T16:59:46;11.85;;;7.25;;
23596;SDS011;40226;50.874;4.394;2022-11-11T17:02:18;13.45;;;8.15;;
23596;SDS011;40226;50.874;4.394;2022-11-11T17:04:46;14.23;;;8.18;;
23596;SDS011;40226;50.874;4.394;2022-11-11T17:07:30;13.43;;;7.90;;
23596;SDS011;40226;50.874;4.394;2022-11-11T17:12:50;13.35;;;7.88;;
23596;SDS011;40226;50.874;4.394;2022-11-11T17:15:17;16.15;;;9.23;;
23596;SDS011;40226;50.874;4.394;2022-11-11T17:20:30;13.68;;;7.70;;
23596;SDS011;40226;50.874;4.394;2022-11-11T17:22:56;18.73;;;9.38;;
23596;SDS011;40226;50.874;4.394;2022-11-11T17:25:22;17.65;;;8.80;;
23596;SDS011;40226;50.874;4.394;2022-11-11T17:28:33;16.77;;;9.60;;
23596;SDS011;40226;50.874;4.394;2022-11-11T17:33:32;18.85;;;10.70;;
23596;SDS011;40226;50.874;4.394;2022-11-11T17:37:18;15.27;;;9.15;;
23596;SDS011;40226;50.874;4.394;2022-11-11T17:40:07;15.85;;;9.52;;
23596;SDS011;40226;50.874;4.394;2022-11-11T17:42:37;13.93;;;9.95;;
23596;SDS011;40226;50.874;4.394;2022-11-11T17:46:03;19.42;;;10.85;;
23596;SDS011;40226;50.874;4.394;2022-11-11T17:48:43;16.08;;;10.20;;
23596;SDS011;40226;50.874;4.394;2022-11-11T17:51:08;14.98;;;10.57;;
23596;SDS011;40226;50.874;4.394;2022-11-11T17:53:37;20.10;;;11.20;;
23596;SDS011;40226;50.874;4.394;2022-11-11T17:56:43;17.70;;;10.80;;
23596;SDS011;40226;50.874;4.394;2022-11-11T17:59:10;16.42;;;10.77;;
23596;SDS011;40226;50.874;4.394;2022-11-11T18:01:36;18.70;;;10.85;;
23596;SDS011;40226;50.874;4.394;2022-11-11T18:04:01;19.90;;;12.18;;
